Map

Track Data

SID SEASON NUMBER BASIN SUBBASIN NAME ISO_TIME NATURE LAT LON WMO_WIND WMO_PRES WMO_AGENCY TRACK_TYPE DIST2LAND LANDFALL IFLAG USA_AGENCY USA_ATCF_ID USA_LAT USA_LON USA_RECORD USA_STATUS USA_WIND USA_PRES USA_SSHS USA_R34_NE USA_R34_SE USA_R34_SW USA_R34_NW USA_R50_NE USA_R50_SE USA_R50_SW USA_R50_NW USA_R64_NE USA_R64_SE USA_R64_SW USA_R64_NW USA_POCI USA_ROCI USA_RMW USA_EYE TOKYO_LAT TOKYO_LON TOKYO_GRADE TOKYO_WIND TOKYO_PRES TOKYO_R50_DIR TOKYO_R50_LONG TOKYO_R50_SHORT TOKYO_R30_DIR TOKYO_R30_LONG TOKYO_R30_SHORT TOKYO_LAND CMA_LAT CMA_LON CMA_CAT CMA_WIND CMA_PRES HKO_LAT HKO_LON HKO_CAT HKO_WIND HKO_PRES NEWDELHI_LAT NEWDELHI_LON NEWDELHI_GRADE NEWDELHI_WIND NEWDELHI_PRES NEWDELHI_CI NEWDELHI_DP NEWDELHI_POCI REUNION_LAT REUNION_LON REUNION_TYPE REUNION_WIND REUNION_PRES REUNION_TNUM REUNION_CI REUNION_RMW REUNION_R34_NE REUNION_R34_SE REUNION_R34_SW REUNION_R34_NW REUNION_R50_NE REUNION_R50_SE REUNION_R50_SW REUNION_R50_NW REUNION_R64_NE REUNION_R64_SE REUNION_R64_SW REUNION_R64_NW BOM_LAT BOM_LON BOM_TYPE BOM_WIND BOM_PRES BOM_TNUM BOM_CI BOM_RMW BOM_R34_NE BOM_R34_SE BOM_R34_SW BOM_R34_NW BOM_R50_NE BOM_R50_SE BOM_R50_SW BOM_R50_NW BOM_R64_NE BOM_R64_SE BOM_R64_SW BOM_R64_NW BOM_ROCI BOM_POCI BOM_EYE BOM_POS_METHOD BOM_PRES_METHOD NADI_LAT NADI_LON NADI_CAT NADI_WIND NADI_PRES WELLINGTON_LAT WELLINGTON_LON WELLINGTON_WIND WELLINGTON_PRES DS824_LAT DS824_LON DS824_STAGE DS824_WIND DS824_PRES TD9636_LAT TD9636_LON TD9636_STAGE TD9636_WIND TD9636_PRES TD9635_LAT TD9635_LON TD9635_WIND TD9635_PRES TD9635_ROCI NEUMANN_LAT NEUMANN_LON NEUMANN_CLASS NEUMANN_WIND NEUMANN_PRES MLC_LAT MLC_LON MLC_CLASS MLC_WIND MLC_PRES USA_GUST BOM_GUST BOM_GUST_PER REUNION_GUST REUNION_GUST_PER USA_SEAHGT USA_SEARAD_NE USA_SEARAD_SE USA_SEARAD_SW USA_SEARAD_NW STORM_SPEED STORM_DIR
1975089S17163 1975 32 SP MM BETTY 1975-03-30 00:00:00 TS -17.1000 163.000 main 365 352 O________OO_O_ jtwc_sh SH291975 -17.1000 163.000 -1 -17.1000 163.000 TC 65 -17.1000 163.000 4 -17.1000 163.000 TC 25 10 91
1975089S17163 1975 32 SP MM BETTY 1975-03-30 03:00:00 TS -17.1058 163.497 main 352 336 P________PP_P_ SH291975 -17.1078 163.507 -1 -17.1078 163.507 TC 65 -17.0974 163.464 4 -17.1103 163.507 TC 25 9 90
1975089S17163 1975 32 SP MM BETTY 1975-03-30 06:00:00 TS -17.0964 163.983 main 336 300 O________OP_O_ jtwc_sh SH291975 -17.1000 164.000 -1 -17.1000 164.000 TC 65 -17.0854 163.932 4 -17.1000 164.000 TC 25 9 87
1975089S17163 1975 32 SP MM BETTY 1975-03-30 09:00:00 TS -17.0607 164.451 main 291 249 P________PP_P_ SH291975 -17.0649 164.465 -1 -17.0649 164.465 TC 65 -17.0558 164.409 4 -17.0574 164.465 TC 25 9 84
1975089S17163 1975 32 SP MM BETTY 1975-03-30 12:00:00 TS -17.0000 164.900 main 249 209 O________OO_O_ jtwc_sh SH291975 -17.0000 164.900 -1 -17.0000 164.900 TC 65 -17.0000 164.900 4 -17.0000 164.900 TC 25 9 81
1975089S17163 1975 32 SP MM BETTY 1975-03-30 15:00:00 TS -16.9286 165.336 main 209 168 P________PP_P_ SH291975 -16.9149 165.315 -1 -16.9149 165.315 TC 65 -16.9120 165.398 4 -16.9724 165.315 TC 27 8 78
1975089S17163 1975 32 SP MM BETTY 1975-03-30 18:00:00 TS -16.8238 165.738 main 168 126 O________OP_O_ jtwc_sh SH291975 -16.8000 165.700 -1 -16.8000 165.700 TC 65 -16.7952 165.853 4 -16.9000 165.700 TC 30 8 72
1975089S17163 1975 32 SP MM BETTY 1975-03-30 21:00:00 TS -16.6734 166.157 main 117 87 P________PP_P_ SH291975 -16.6576 166.140 -1 -16.6576 166.140 TC 65 -16.6557 166.207 4 -16.7226 166.140 TC 30 7 57
1975089S17163 1975 32 SP MM BETTY 1975-03-31 00:00:00 TS -16.4444 166.356 30 997 wellington main 81 81 O_______OOO_O_ jtwc_sh SH291975 -16.5000 166.400 -1 -16.0000 166.000 30 997 -16.5000 166.400 TC 65 -16.5000 166.400 4 -16.5000 166.400 TC 30 4 5
1975089S17163 1975 32 SP MM BETTY 1975-03-31 03:00:00 TS -16.2712 166.206 main 92 85 P_______PPP_P_ SH291975 -16.3575 166.282 -1 -16.0345 165.875 30 997 -16.3575 166.282 TC 65 -16.3353 166.287 4 -16.2925 166.282 TC 32 5 309
1975089S17163 1975 32 SP MM BETTY 1975-03-31 06:00:00 TS -16.1271 165.944 main 106 106 O_______POP_O_ jtwc_sh SH291975 -16.2000 166.000 -1 -16.0552 165.750 30 997 -16.2000 166.000 TC 65 -16.1576 166.029 4 -16.1000 166.000 TC 35 6 299
1975089S17163 1975 32 SP MM BETTY 1975-03-31 09:00:00 TS -15.9982 165.702 main 117 117 P_______PPP_P_ SH291975 -16.0000 165.725 -1 -16.0483 165.625 30 997 -16.0000 165.725 TC 65 -15.9760 165.756 4 -15.9425 165.732 TC 35 4 306
1975089S17163 1975 32 SP MM BETTY 1975-03-31 12:00:00 TS -15.8667 165.567 30 997 wellington main 120 112 O_______OOO_O_ jtwc_sh SH291975 -15.8000 165.600 -1 -16.0000 165.500 30 997 -15.8000 165.600 TC 65 -15.8000 165.600 4 -15.8000 165.600 TC 35 3 351
1975089S17163 1975 32 SP MM BETTY 1975-03-31 15:00:00 TS -15.7273 165.656 main 102 88 P_______PPP_P_ SH291975 -15.6426 165.833 -1 -15.9010 165.381 30 997 -15.6426 165.833 TC 65 -15.6552 165.747 4 -15.6500 165.775 TC 35 4 44
1975089S17163 1975 32 SP MM BETTY 1975-03-31 18:00:00 TS -15.5792 165.854 main 78 64 O_______POP_O_ jtwc_sh SH291975 -15.5000 166.200 -1 -15.7595 165.299 30 997 -15.5000 166.200 TC 65 -15.5154 166.023 4 -15.5000 166.100 TC 35 5 52
1975089S17163 1975 32 SP MM BETTY 1975-03-31 21:00:00 TS -15.4335 166.046 main 64 32 P_______PPP_P_ SH291975 -15.3575 166.465 -1 -15.5883 165.293 30 997 -15.3575 166.465 TC 65 -15.3678 166.362 4 -15.3650 166.407 TC 37 5 52
1975089S17163 1975 32 SP MM BETTY 1975-04-01 00:00:00 TS -15.2667 166.267 30 997 wellington main 32 10 O_______OOO_O_ jtwc_sh SH291975 -15.2000 166.700 -1 -15.4000 165.400 30 997 -15.2000 166.700 TC 65 -15.2000 166.700 4 -15.2000 166.700 TC 40 6 49
1975089S17163 1975 32 SP MM BETTY 1975-04-01 03:00:00 TS -15.0533 166.497 main 10 0 P_______PPP_P_ SH291975 -15.0149 166.900 -1 -15.2065 165.652 30 997 -15.0149 166.900 TC 65 -14.9760 166.927 4 -14.9574 166.907 TC 42 7 47
1975089S17163 1975 32 SP MM BETTY 1975-04-01 06:00:00 TS -14.8225 166.760 main 10 10 O_______POP_O_ jtwc_sh SH291975 -14.8000 167.100 -1 -15.0003 166.016 30 997 -14.8000 167.100 TC 65 -14.7347 167.143 4 -14.7000 167.100 TC 45 7 50
1975089S17163 1975 32 SP MM BETTY 1975-04-01 09:00:00 TS -14.6012 167.051 main 44 44 P_______PPP_P_ SH291975 -14.5425 167.335 -1 -14.7939 166.446 30 997 -14.5425 167.335 TC 65 -14.5010 167.362 4 -14.4850 167.335 TC 45 7 54
1975089S17163 1975 32 SP MM BETTY 1975-04-01 12:00:00 TS -14.4000 167.367 30 997 wellington main 74 74 O_______OOO_O_ jtwc_sh SH291975 -14.3000 167.600 -1 -14.6000 166.900 30 997 -14.3000 167.600 TC 65 -14.3000 167.600 4 -14.3000 167.600 TC 45 7 59
1975089S17163 1975 32 SP MM BETTY 1975-04-01 15:00:00 TS -14.2192 167.701 main 110 110 P_______PPP_P_ SH291975 -14.1200 167.892 -1 -14.4115 167.343 32 995 -14.1200 167.892 TC 65 -14.1439 167.895 4 -14.1275 167.893 TC 47 7 64
1975089S17163 1975 32 SP MM BETTY 1975-04-01 18:00:00 TS -14.0776 168.050 main 147 147 O_______POP_O_ jtwc_sh SH291975 -14.0000 168.200 -1 -14.2404 167.795 35 993 -14.0000 168.200 TC 65 -14.0252 168.208 4 -14.0000 168.200 TC 50 7 71
1975089S17163 1975 32 SP MM BETTY 1975-04-01 21:00:00 TS -13.9826 168.410 main 179 179 P_______PPP_P_ SH291975 -13.9275 168.515 -1 -14.0990 168.225 37 991 -13.9275 168.515 TC 65 -13.9439 168.517 4 -13.9275 168.515 TC 50 7 78
1975089S17163 1975 32 SP MM BETTY 1975-04-02 00:00:00 TS -13.9333 168.733 40 990 wellington main 211 211 O_______OOO_O_ jtwc_sh SH291975 -13.9000 168.800 -1 -14.0000 168.600 40 990 -13.9000 168.800 TC 65 -13.9000 168.800 4 -13.9000 168.800 TC 50 6 83
1975089S17163 1975 32 SP MM BETTY 1975-04-02 03:00:00 TS -13.9142 168.976 main 238 238 P_______PPP_P_ SH291975 -13.8849 169.015 -1 -13.9565 168.886 40 990 -13.8849 169.015 TC 65 -13.8889 169.037 4 -13.8849 169.015 TC 50 4 89
1975089S17163 1975 32 SP MM BETTY 1975-04-02 06:00:00 TS -13.9278 169.177 main 257 257 O_______POP_O_ jtwc_sh SH291975 -13.9000 169.200 -1 -13.9545 169.117 40 990 -13.9000 169.200 TC 65 -13.9123 169.245 4 -13.9000 169.200 TC 50 4 97
1975089S17163 1975 32 SP MM BETTY 1975-04-02 09:00:00 TS -13.9633 169.379 main 271 271 P_______PPP_P_ SH291975 -13.9500 169.407 -1 -13.9753 169.314 40 990 -13.9500 169.407 TC 65 -13.9546 169.430 4 -13.9500 169.407 TC 52 4 101
1975089S17163 1975 32 SP MM BETTY 1975-04-02 12:00:00 TS -14.0000 169.567 40 990 wellington main 291 291 O_______OOO_O_ jtwc_sh SH291975 -14.0000 169.600 -1 -14.0000 169.500 40 990 -14.0000 169.600 TC 65 -14.0000 169.600 4 -14.0000 169.600 TC 55 4 96
1975089S17163 1975 32 SP MM BETTY 1975-04-02 15:00:00 TS -13.9980 169.741 main 301 301 P_______PPP_P_ SH291975 -14.0000 169.758 -1 -13.9918 169.715 43 987 -14.0000 169.758 TC 65 -13.9964 169.756 4 -14.0000 169.758 TC 55 3 89
1975089S17163 1975 32 SP MM BETTY 1975-04-02 18:00:00 TS -13.9971 169.904 main 321 321 O_______POP_O_ jtwc_sh SH291975 -14.0000 169.900 -1 -13.9850 169.923 47 985 -14.0000 169.900 TC 65 -13.9973 169.900 4 -14.0000 169.900 TC 55 3 93
1975089S17163 1975 32 SP MM BETTY 1975-04-02 21:00:00 TS -14.0142 170.066 main 341 341 P_______PPP_P_ SH291975 -14.0275 170.043 -1 -13.9856 170.118 51 982 -14.0275 170.043 TC 65 -14.0246 170.044 4 -14.0275 170.043 TC 57 3 102
1975089S17163 1975 32 SP MM BETTY 1975-04-03 00:00:00 TS -14.0667 170.233 55 980 wellington main 348 348 O_______OOO_O_ jtwc_sh SH291975 -14.1000 170.200 -1 -14.0000 170.300 55 980 -14.1000 170.200 TC 65 -14.1000 170.200 4 -14.1000 170.200 TC 60 4 114
1975089S17163 1975 32 SP MM BETTY 1975-04-03 03:00:00 TS -14.1653 170.418 main 364 364 P_______PPP_P_ SH291975 -14.2200 170.393 -1 -14.0315 170.477 55 980 -14.2200 170.393 TC 65 -14.2579 170.398 4 -14.2200 170.393 TC 60 4 123
1975089S17163 1975 32 SP MM BETTY 1975-04-03 06:00:00 TS -14.3067 170.607 main 374 374 O_______POP_O_ jtwc_sh SH291975 -14.4000 170.600 -1 -14.0775 170.637 55 980 -14.4000 170.600 TC 65 -14.4626 170.607 4 -14.4000 170.600 TC 60 5 131
1975089S17163 1975 32 SP MM BETTY 1975-04-03 09:00:00 TS -14.4868 170.795 main 379 379 P_______PPP_P_ SH291975 -14.6500 170.807 -1 -14.1347 170.780 55 980 -14.6500 170.807 TC 65 -14.6860 170.813 4 -14.6500 170.807 TC 60 5 136
1975089S17163 1975 32 SP MM BETTY 1975-04-03 12:00:00 TS -14.6667 170.967 55 980 wellington main 386 386 O_______OOO_O_ jtwc_sh SH291975 -14.9000 171.000 -1 -14.2000 170.900 55 980 -14.9000 171.000 TC 65 -14.9000 171.000 4 -14.9000 171.000 TC 60 4 134
1975089S17163 1975 32 SP MM BETTY 1975-04-03 15:00:00 TS -14.7746 171.102 main 391 391 P_______PPP_P_ SH291975 -15.0650 171.165 -1 -14.1784 170.977 55 980 -15.0650 171.165 TC 65 -15.0317 171.123 4 -15.0650 171.165 TC 60 3 131
1975089S17163 1975 32 SP MM BETTY 1975-04-03 18:00:00 TS -14.8720 171.211 main 396 396 O_______POP_O_ jtwc_sh SH291975 -15.2000 171.300 -1 -14.1774 171.036 55 980 -15.2000 171.300 TC 65 -15.1547 171.228 4 -15.2000 171.300 TC 60 3 138
1975089S17163 1975 32 SP MM BETTY 1975-04-03 21:00:00 TS -14.9734 171.290 main 402 398 P_______PPP_P_ SH291975 -15.3200 171.393 -1 -14.2627 171.102 55 980 -15.3200 171.393 TC 65 -15.3004 171.345 4 -15.3199 171.378 TC 62 3 149
1975089S17163 1975 32 SP MM BETTY 1975-04-04 00:00:00 TS -15.1667 171.400 55 980 wellington main 404 401 O_______OOO_O_ jtwc_sh SH291975 -15.5000 171.500 -1 -14.5000 171.200 55 980 -15.5000 171.500 TC 65 -15.5000 171.500 4 -15.5000 171.500 TC 65 6 154
1975089S17163 1975 32 SP MM BETTY 1975-04-04 03:00:00 TS -15.5474 171.584 main 416 411 P_______PPP_P_ SH291975 -15.8199 171.663 -1 -15.0025 171.276 57 977 -15.8199 171.663 TC 65 -15.8043 171.691 4 -15.8201 171.777 TC 65 9 155
1975089S17163 1975 32 SP MM BETTY 1975-04-04 06:00:00 TS -16.0188 171.822 main 428 427 O_______POP_O_ jtwc_sh SH291975 -16.2000 171.900 -1 -15.6509 171.399 60 975 -16.2000 171.900 TC 65 -16.1619 171.930 4 -16.2000 172.100 TC 65 11 154
1975089S17163 1975 32 SP MM BETTY 1975-04-04 09:00:00 TS -16.4861 172.065 main 458 458 P_______PPP_P_ SH291975 -16.5575 172.213 -1 -16.3489 171.623 62 972 -16.5575 172.213 TC 65 -16.5385 172.229 4 -16.5498 172.320 TC 67 11 149
1975089S17163 1975 32 SP MM BETTY 1975-04-04 12:00:00 TS -16.9333 172.400 65 970 wellington main 491 472 O_______OOO_O_ jtwc_sh SH291975 -16.9000 172.600 -1 -17.0000 172.000 65 970 -16.9000 172.600 TC 65 -16.9000 172.600 4 -16.9000 172.600 TC 70 11 137
1975089S17163 1975 32 SP MM BETTY 1975-04-04 15:00:00 TS -17.3276 172.874 main 462 403 P_______PPP_P_ SH291975 -17.2148 173.013 -1 -17.4987 172.607 66 968 -17.2148 173.013 TC 65 -17.2123 173.013 4 -17.2725 173.055 TC 70 13 126
1975089S17163 1975 32 SP MM BETTY 1975-04-04 18:00:00 TS -17.6719 173.461 main 393 328 O_______POP_O_ jtwc_sh SH291975 -17.5000 173.500 -1 -17.9297 173.363 67 967 -17.5000 173.500 TC 65 -17.5015 173.500 4 -17.6000 173.600 TC 70 13 119
1975089S17163 1975 32 SP MM BETTY 1975-04-04 21:00:00 TS -17.9633 174.100 main 327 254 P_______PPP_P_ SH291975 -17.7722 174.048 -1 -18.2956 174.188 68 966 -17.7722 174.048 TC 65 -17.7650 174.063 4 -17.8295 174.105 TC 70 14 113
1975089S17163 1975 32 SP MM BETTY 1975-04-05 00:00:00 TS -18.2000 174.800 70 965 wellington main 254 185 O_______OOO_O_ jtwc_sh SH291975 -18.0000 174.700 -1 -18.6000 175.000 70 965 -18.0000 174.700 TC 65 -18.0000 174.700 4 -18.0000 174.700 TC 70 14 107
1975089S17163 1975 32 SP MM BETTY 1975-04-05 03:00:00 TS -18.3748 175.544 main 185 110 P_______PPP_P_ SH291975 -18.1576 175.478 -1 -18.8039 175.702 66 968 -18.1576 175.478 TC 65 -18.1648 175.457 4 -18.1502 175.470 TC 70 15 103
1975089S17163 1975 32 SP MM BETTY 1975-04-05 06:00:00 TS -18.5282 176.308 main 110 70 O_______POP_O_ jtwc_sh SH291975 -18.3000 176.300 -1 -18.9617 176.371 62 972 -18.3000 176.300 TC 65 -18.3074 176.274 4 -18.3000 176.300 TC 70 15 102
1975089S17163 1975 32 SP MM BETTY 1975-04-05 09:00:00 TS -18.6908 177.058 main 70 64 P_______PPP_P_ SH291975 -18.4625 177.095 -1 -19.1385 177.005 58 976 -18.4625 177.095 TC 65 -18.4711 177.079 4 -18.4626 177.103 TC 72 14 107
1975089S17163 1975 32 SP MM BETTY 1975-04-05 12:00:00 TS -18.9333 177.733 55 980 wellington main 70 70 O_______OOO_O_ jtwc_sh SH291975 -18.7000 177.800 -1 -19.4000 177.600 55 980 -18.7000 177.800 TC 65 -18.7000 177.800 4 -18.7000 177.800 TC 75 13 120
1975089S17163 1975 32 SP MM BETTY 1975-04-05 15:00:00 TS -19.3451 178.277 main 112 112 P_______PPP_P_ SH291975 -19.0621 178.353 -1 -19.8959 178.183 55 980 -19.0621 178.353 TC 65 -19.0841 178.363 4 -19.0620 178.295 TC 75 13 133
1975089S17163 1975 32 SP MM BETTY 1975-04-05 18:00:00 TS -19.8342 178.744 main 175 175 O_______POP_O_ jtwc_sh SH291975 -19.5000 178.800 -1 -20.4719 178.729 55 980 -19.5000 178.800 TC 65 -19.5332 178.834 4 -19.5000 178.700 TC 75 13 138
1975089S17163 1975 32 SP MM BETTY 1975-04-05 21:00:00 TS -20.3342 179.211 main 247 247 P_______PPP_P_ SH291975 -19.9723 179.223 -1 -21.0369 179.236 55 980 -19.9723 179.223 TC 65 -19.9908 179.238 4 -19.9725 179.172 TC 75 13 138
1975089S17163 1975 32 SP MM BETTY 1975-04-06 00:00:00 TS -20.7667 179.633 55 980 wellington main 315 315 O_______OOO_O_ jtwc_sh SH291975 -20.4000 179.600 -1 -21.5000 179.700 55 980 -20.4000 179.600 TC 65 -20.4000 179.600 4 -20.4000 179.600 TC 75 10 134
1975089S17163 1975 32 SP MM BETTY 1975-04-06 03:00:00 TS -21.0409 180.001 main 351 351 P_______PPP_P_ SH291975 -20.6874 179.965 -1 -21.7597 -179.860 55 980 -20.6874 179.965 TC 65 -20.7141 179.946 4 -20.6873 179.915 TC 75 8 125
1975089S17163 1975 32 SP MM BETTY 1975-04-06 06:00:00 TS -21.2293 180.332 main 385 385 O_______POP_O_ jtwc_sh SH291975 -20.9000 -179.700 -1 -21.9068 -179.465 55 980 -20.9000 180.300 TC 65 -20.9688 -179.742 4 -20.9000 -179.800 TC 75 7 121
1975089S17163 1975 32 SP MM BETTY 1975-04-06 09:00:00 TS -21.4049 180.662 main 424 424 P_______PPP_P_ SH291975 -21.1223 -179.415 -1 -21.9755 -179.114 55 980 -21.1223 -179.415 TC 65 -21.1642 -179.433 4 -21.1224 -179.465 TC 75 7 116
1975089S17163 1975 32 SP MM BETTY 1975-04-06 12:00:00 TS -21.5333 181.000 55 980 wellington main 449 449 O_______OOO_O_ jtwc_sh SH291975 -21.3000 -179.100 -1 -22.0000 -178.800 55 980 -21.3000 180.900 TC 65 -21.3000 -179.100 4 -21.3000 -179.100 TC 75 7 110
1975089S17163 1975 32 SP MM BETTY 1975-04-06 15:00:00 TS -21.6434 181.385 main 482 482 P_______PPP_P_ SH291975 -21.4376 -178.665 -1 -22.0925 -178.494 55 980 -21.4376 -178.665 TC 65 -21.4403 -178.622 4 -21.4374 -178.715 TC 75 7 103
1975089S17163 1975 32 SP MM BETTY 1975-04-06 18:00:00 TS -21.6931 181.774 main 516 516 O_______POP_O_ jtwc_sh SH291975 -21.5000 -178.200 -1 -22.1422 -178.225 55 980 -21.5000 181.800 TC 65 -21.5163 -178.130 4 -21.5000 -178.300 TC 75 7 95
1975089S17163 1975 32 SP MM BETTY 1975-04-06 21:00:00 TS -21.7009 182.162 main 544 544 P_______PPP_P_ SH291975 -21.5101 -177.747 -1 -22.1208 -177.994 55 980 -21.5101 -177.747 TC 65 -21.5090 -177.697 4 -21.5103 -177.797 TC 75 7 82
1975089S17163 1975 32 SP MM BETTY 1975-04-07 00:00:00 TS -21.6000 182.467 55 980 wellington main 557 550 O_______OOO_O_ jtwc_sh SH291975 -21.4000 -177.400 -1 -22.0000 -177.800 55 980 -21.4000 182.600 TC 65 -21.4000 -177.400 4 -21.4000 -177.400 TC 75 6 52
1975089S17163 1975 32 SP MM BETTY 1975-04-07 03:00:00 TS -21.3403 182.658 main 550 529 P_______PPP_P_ SH291975 -21.1448 -177.202 -1 -21.7218 -177.548 51 982 -21.1448 -177.202 TC 65 -21.1258 -177.274 4 -21.1448 -177.252 TC 75 7 20
1975089S17163 1975 32 SP MM BETTY 1975-04-07 06:00:00 TS -20.9859 182.710 main 529 504 O_______POP_O_ jtwc_sh SH291975 -20.8000 -177.200 -1 -21.3518 -177.346 47 985 -20.8000 182.800 TC 65 -20.7636 -177.296 4 -20.8000 -177.300 TC 75 7 358
1975089S17163 1975 32 SP MM BETTY 1975-04-07 09:00:00 TS -20.6017 182.642 main 495 459 P_______PPP_P_ SH291975 -20.4200 -177.375 -1 -20.9559 -177.245 43 987 -20.4200 -177.375 TC 65 -20.3947 -177.444 4 -20.4199 -177.433 TC 77 8 340
1975089S17163 1975 32 SP MM BETTY 1975-04-07 12:00:00 TS -20.2667 182.433 40 990 wellington main 459 421 O_______OOO_O_ jtwc_sh SH291975 -20.1000 -177.700 -1 -20.6000 -177.300 40 990 -20.1000 182.300 TC 65 -20.1000 -177.700 4 -20.1000 -177.700 TC 80 7 319
1975089S17163 1975 32 SP MM BETTY 1975-04-07 15:00:00 TS -20.0474 182.123 main 415 374 P_______PPP_P_ SH291975 -19.9400 -178.070 -1 -20.2608 -177.534 40 990 -19.9400 -178.070 TC 65 -19.9565 -178.013 4 -19.9400 -178.062 TC 80 8 296
1975089S17163 1975 32 SP MM BETTY 1975-04-07 18:00:00 TS -19.9313 181.709 main 374 339 O_______POP_O_ jtwc_sh SH291975 -19.9000 -178.500 -1 -19.9872 -177.923 40 990 -19.9000 181.500 TC 65 -19.9003 -178.423 4 -19.9000 -178.500 TC 80 8 281
1975089S17163 1975 32 SP MM BETTY 1975-04-07 21:00:00 TS -19.8898 181.246 main 331 298 P_______PPP_P_ SH291975 -19.9124 -178.935 -1 -19.8450 -178.425 40 990 -19.9124 -178.935 TC 65 -19.9189 -178.897 4 -19.9124 -178.935 TC 82 9 268
1975089S17163 1975 32 SP MM BETTY 1975-04-08 00:00:00 TS -19.9667 180.733 40 990 wellington main 298 279 O_______OOO_O_ jtwc_sh SH291975 -20.0000 -179.400 -1 -19.9000 -179.000 40 990 -20.0000 180.600 TC 65 -20.0000 -179.400 4 -20.0000 -179.400 TC 85 10 254
1975089S17163 1975 32 SP MM BETTY 1975-04-08 03:00:00 TS -20.1659 180.209 main 282 276 P_______PPP_P_ SH291975 -20.1274 -179.893 -1 -20.2554 -179.542 40 990 -20.1274 -179.893 TC 65 -20.1055 -179.894 4 -20.1274 -179.893 TC 82 11 244
1975089S17163 1975 32 SP MM BETTY 1975-04-08 06:00:00 TS -20.4611 179.656 main 288 281 O_______POP_O_ jtwc_sh SH291975 -20.3000 179.600 -1 -20.7985 179.846 40 990 -20.3000 179.600 TC 65 -20.2678 179.593 4 -20.3000 179.600 TC 80 12 239
1975089S17163 1975 32 SP MM BETTY 1975-04-08 09:00:00 TS -20.7991 179.103 main 295 291 P_______PPP_P_ SH291975 -20.4925 179.085 -1 -21.4174 179.161 40 990 -20.4925 179.085 TC 65 -20.4711 179.084 4 -20.4850 179.085 TC 77 12 237
1975089S17163 1975 32 SP MM BETTY 1975-04-08 12:00:00 TS -21.1333 178.533 40 990 wellington main 314 314 O_______OOO_O_ jtwc_sh SH291975 -20.7000 178.600 -1 -22.0000 178.400 40 990 -20.7000 178.600 TC 65 -20.7000 178.600 4 -20.7000 178.600 TC 75 13 243
1975089S17163 1975 32 SP MM BETTY 1975-04-08 15:00:00 TS -21.3663 177.906 main 346 346 P_______PPP_P_ SH291975 -20.8848 178.185 -1 -22.3706 177.418 40 990 -20.8848 178.185 TC 65 -20.8914 178.158 4 -20.9423 178.185 TC 72 12 248
1975089S17163 1975 32 SP MM BETTY 1975-04-08 18:00:00 TS -21.5993 177.290 main 374 374 O_______POP_O_ jtwc_sh SH291975 -21.1000 177.800 -1 -22.6862 176.392 40 990 -21.1000 177.800 TC 65 -21.1095 177.746 4 -21.2000 177.800 TC 70 12 244
1975089S17163 1975 32 SP MM BETTY 1975-04-08 21:00:00 TS -21.8904 176.726 main 421 421 P_______PPP_P_ SH291975 -21.3699 177.400 -1 -22.9829 175.469 40 990 -21.3699 177.400 TC 65 -21.3728 177.361 4 -21.4274 177.400 TC 67 11 236
1975089S17163 1975 32 SP MM BETTY 1975-04-09 00:00:00 TS -22.2333 176.267 40 990 wellington main 467 467 O_______OOO_O_ jtwc_sh SH291975 -21.7000 177.000 -1 -23.3000 174.800 40 990 -21.7000 177.000 TC 65 -21.7000 177.000 4 -21.7000 177.000 TC 65 10 225
1975089S17163 1975 32 SP MM BETTY 1975-04-09 03:00:00 TS -22.6085 175.942 main 522 522 P_______PPP_P_ SH291975 -22.0626 176.577 -1 -23.6809 174.582 40 990 -22.0626 176.577 TC 65 -22.0901 176.602 4 -22.0551 176.578 TC 62 10 212
1975089S17163 1975 32 SP MM BETTY 1975-04-09 06:00:00 TS -23.0399 175.726 main 572 572 O_______POP_O_ jtwc_sh SH291975 -22.5000 176.200 -1 -24.0943 174.626 40 990 -22.5000 176.200 TC 65 -22.5453 176.232 4 -22.5000 176.200 TC 60 10 201
1975089S17163 1975 32 SP MM BETTY 1975-04-09 09:00:00 TS -23.5280 175.563 main 628 628 P_______PPP_P_ SH291975 -23.0124 175.898 -1 -24.5356 174.807 40 990 -23.0124 175.898 TC 65 -23.0527 175.921 4 -23.0199 175.898 TC 60 11 193
1975089S17163 1975 32 SP MM BETTY 1975-04-09 12:00:00 TS -24.0667 175.467 40 990 wellington main 694 694 O_______OOO_O_ jtwc_sh SH291975 -23.6000 175.700 -1 -25.0000 175.000 40 990 -23.6000 175.700 TC 65 -23.6000 175.700 4 -23.6000 175.700 TC 60 11 187
1975089S17163 1975 32 SP MM BETTY 1975-04-09 15:00:00 TS -24.6493 175.405 main 750 750 P_______PPP_P_ SH291975 -24.2499 175.605 -1 -25.5109 175.015 37 991 -24.2499 175.605 TC 65 -24.2001 175.593 4 -24.1924 175.605 TC 57 12 183
1975089S17163 1975 32 SP MM BETTY 1975-04-09 18:00:00 TS -25.2445 175.399 main 813 813 O_______POP_O_ jtwc_sh SH291975 -24.9000 175.600 -1 -26.0375 175.015 35 993 -24.9000 175.600 TC 65 -24.8295 175.578 4 -24.8000 175.600 TC 55 12 0
1975089S17163 1975 32 SP MM BETTY 1975-04-09 21:00:00 TS -25.8245 175.422 main 877 877 P_______PPP_P_ SH291975 -25.4950 175.635 -1 -26.5453 175.008 32 995 -25.4950 175.635 TC 65 -25.4441 175.624 4 -25.4375 175.627 TC 55 11 177
1975089S17163 1975 32 SP MM BETTY 1975-04-10 00:00:00 TS -26.3333 175.467 30 997 wellington main 927 902 O_______OOO_O_ jtwc_sh SH291975 -26.0000 175.700 -1 -27.0000 175.000 30 997 -26.0000 175.700 TC 65 -26.0000 175.700 4 -26.0000 175.700 TC 55 9 175
1975089S17163 1975 32 SP MM BETTY 1975-04-10 03:00:00 TS -26.7093 175.505 main 902 870 P_______PPP_P_ SH291975 -26.3725 175.743 -1 -27.3615 174.988 30 997 -26.3725 175.743 TC 65 -26.4396 175.757 4 -26.3800 175.800 TC 52 7 173
1975089S17163 1975 32 SP MM BETTY 1975-04-10 06:00:00 TS -27.0308 175.552 main 872 829 O_______POP_O_ jtwc_sh SH291975 -26.7000 175.800 -1 -27.6674 174.978 30 997 -26.7000 175.800 TC 65 -26.8175 175.835 4 -26.7000 175.900 TC 50 7 173
1975089S17163 1975 32 SP MM BETTY 1975-04-10 09:00:00 TS -27.3823 175.608 main 829 800 P_______PPP_P_ SH291975 -27.1000 175.900 -1 -27.9396 174.979 30 997 -27.1000 175.900 TC 65 -27.1615 175.920 4 -27.0925 175.958 TC 47 7 172
1975089S17163 1975 32 SP MM BETTY 1975-04-10 12:00:00 TS -27.7333 175.667 30 997 wellington main 800 758 O_______OOO_O_ jtwc_sh SH291975 -27.5000 176.000 -1 -28.2000 175.000 30 997 -27.5000 176.000 TC 65 -27.5000 176.000 4 -27.5000 176.000 TC 45 7 175
1975089S17163 1975 32 SP MM BETTY 1975-04-10 15:00:00 TS -28.0715 175.688 main 758 726 P_______PPP_P_ SH291975 -27.8500 176.058 -1 -28.4152 174.928 30 997 -27.8500 176.058 TC 65 -27.8989 176.002 4 -27.9075 176.050 TC 42 7 177
1975089S17163 1975 32 SP MM BETTY 1975-04-10 18:00:00 TS -28.4047 175.717 main 726 695 O_______POP_O_ jtwc_sh SH291975 -28.2000 176.100 -1 -28.6339 174.896 30 997 -28.2000 176.100 TC 65 -28.2942 176.004 4 -28.3000 176.100 TC 40 7 176
1975089S17163 1975 32 SP MM BETTY 1975-04-10 21:00:00 TS -28.7449 175.743 main 695 661 P_______PPP_P_ SH291975 -28.6149 176.113 -1 -28.9107 174.991 30 997 -28.6149 176.113 TC 65 -28.6674 176.055 4 -28.6723 176.105 TC 37 7 167
1975089S17163 1975 32 SP MM BETTY 1975-04-11 00:00:00 TS -29.1000 175.900 30 997 wellington main 661 638 O_______OOO_O_ jtwc_sh SH291975 -29.0000 176.200 -1 -29.3000 175.300 30 997 -29.0000 176.200 TC 65 -29.0000 176.200 4 -29.0000 176.200 TC 35 9 146
1975089S17163 1975 32 SP MM BETTY 1975-04-11 03:00:00 TS -29.4789 176.306 main 638 628 P_______PPP_P_ SH291975 -29.2798 176.433 -1 -29.8849 175.974 30 997 -29.2798 176.433 TC 65 -29.2155 176.481 4 -29.2725 176.490 TC 35 11 132
1975089S17163 1975 32 SP MM BETTY 1975-04-11 06:00:00 TS -29.8620 176.871 main 630 626 O_______POP_O_ jtwc_sh SH291975 -29.5000 176.800 -1 -30.5745 176.866 30 997 -29.5000 176.800 TC 65 -29.3976 176.861 4 -29.5000 176.900 TC 35 13 125
1975089S17163 1975 32 SP MM BETTY 1975-04-11 09:00:00 TS -30.2074 177.491 main 636 628 P_______PPP_P_ SH291975 -29.6550 177.264 -1 -31.3010 177.852 30 997 -29.6550 177.264 TC 65 -29.6059 177.310 4 -29.6549 177.329 TC 32 13 124
1975089S17163 1975 32 SP MM BETTY 1975-04-11 12:00:00 TS -30.6000 178.133 30 997 wellington main 630 618 O_______OOO_O_ jtwc_sh SH291975 -29.9000 177.800 -1 -32.0000 178.800 30 997 -29.9000 177.800 TC 65 -29.9000 177.800 4 -29.9000 177.800 TC 30 14 131
1975089S17163 1975 32 SP MM BETTY 1975-04-11 15:00:00 TS -31.1325 178.728 main 621 613 P_______PPP_P_ SH291975 -30.3975 178.350 -1 -32.6250 179.603 30 997 -30.3975 178.350 TC 65 -30.4136 178.290 4 -30.3973 178.285 TC 27 14 137
1975089S17163 1975 32 SP MM BETTY 1975-04-11 18:00:00 TS -31.5858 179.217 main 613 611 O_______POP_O_ jtwc_sh SH291975 -31.0000 178.900 -1 -33.1856 -179.726 30 997 -31.0000 178.900 TC 65 -31.0077 178.815 4 -31.0000 178.800 TC 25 12 138
1975089S17163 1975 32 SP MM BETTY 1975-04-11 21:00:00 TS -32.0070 179.665 main 618 610 P_______PPP_P_ SH291975 -31.5872 179.408 -1 -33.7037 -179.142 30 997 -31.5872 179.408 TC 65 -31.5979 179.358 4 -31.5875 179.357 TC 25 10 136
1975089S17163 1975 32 SP MM BETTY 1975-04-12 00:00:00 TS -32.3333 180.067 30 997 wellington main 612 599 O_______OOO_O_ jtwc_sh SH291975 -32.1000 179.900 -1 -34.2000 -178.600 30 997 -32.1000 179.900 TC 65 -32.1000 179.900 4 -32.1000 179.900 TC 25 8 127
1975089S17163 1975 32 SP MM BETTY 1975-04-12 03:00:00 TS -32.4632 180.394 main 599 591 P________PP_P_ SH291975 -32.4673 -179.600 -1 -32.4673 -179.600 TC 65 -32.4512 -179.577 4 -32.4670 -179.649 TC 22 8 118
1975089S17163 1975 32 SP MM BETTY 1975-04-12 06:00:00 TS -32.6933 180.882 main 594 591 O________OP_O_ jtwc_sh SH291975 -32.7000 -179.100 -1 -32.7000 180.900 TC 65 -32.6732 -179.074 4 -32.7000 -179.200 TC 20 9 113
1975089S17163 1975 32 SP MM BETTY 1975-04-12 09:00:00 TS -32.8232 181.385 main 602 599 P________PP_P_ SH291975 -32.8279 -178.600 -1 -32.8279 -178.600 TC 65 -32.8087 -178.584 4 -32.8283 -178.675 TC 20 9 104
1975089S17163 1975 32 SP MM BETTY 1975-04-12 12:00:00 TS -32.9000 181.900 main 612 O________OO_O_ jtwc_sh SH291975 -32.9000 -178.100 -1 -32.9000 181.900 TC 65 -32.9000 -178.100 4 -32.9000 -178.100 TC 20 9 100

Digital Typhoon Data and Search

About IBTrACS Database

This database is a web-friendly format of International Best Track Archive for Climate Stewardship (IBTrACS), a global best track data archive curated by NOAA dating back to 1842.

Updated: 2021-12-01